sensor_id;sensor_type;location;lat;lon;timestamp;P1;durP1;ratioP1;P2;durP2;ratioP2
41881;SDS011;27562;47.524;12.404;2024-02-15T00:02:22;6.57;;;2.50;;
41881;SDS011;27562;47.524;12.404;2024-02-15T00:04:47;5.28;;;2.40;;
41881;SDS011;27562;47.524;12.404;2024-02-15T00:07:13;7.85;;;2.70;;
41881;SDS011;27562;47.524;12.404;2024-02-15T00:09:39;6.55;;;2.70;;
41881;SDS011;27562;47.524;12.404;2024-02-15T00:12:05;4.88;;;2.38;;
41881;SDS011;27562;47.524;12.404;2024-02-15T00:14:31;6.10;;;2.72;;
41881;SDS011;27562;47.524;12.404;2024-02-15T00:16:57;7.32;;;3.58;;
41881;SDS011;27562;47.524;12.404;2024-02-15T00:19:23;6.82;;;2.92;;
41881;SDS011;27562;47.524;12.404;2024-02-15T00:21:49;4.55;;;2.45;;
41881;SDS011;27562;47.524;12.404;2024-02-15T00:24:15;5.90;;;2.80;;
41881;SDS011;27562;47.524;12.404;2024-02-15T00:26:40;6.07;;;2.70;;
41881;SDS011;27562;47.524;12.404;2024-02-15T00:29:09;4.88;;;2.70;;
41881;SDS011;27562;47.524;12.404;2024-02-15T00:31:35;6.03;;;2.92;;
41881;SDS011;27562;47.524;12.404;2024-02-15T00:34:01;5.65;;;2.50;;
41881;SDS011;27562;47.524;12.404;2024-02-15T00:36:29;7.53;;;3.70;;
41881;SDS011;27562;47.524;12.404;2024-02-15T00:38:55;6.88;;;2.92;;
41881;SDS011;27562;47.524;12.404;2024-02-15T00:41:21;5.78;;;2.83;;
41881;SDS011;27562;47.524;12.404;2024-02-15T00:43:47;7.30;;;3.17;;
41881;SDS011;27562;47.524;12.404;2024-02-15T00:46:13;7.65;;;3.65;;
41881;SDS011;27562;47.524;12.404;2024-02-15T00:48:39;4.45;;;2.60;;
41881;SDS011;27562;47.524;12.404;2024-02-15T00:51:06;5.78;;;2.70;;
41881;SDS011;27562;47.524;12.404;2024-02-15T00:53:32;4.75;;;2.40;;
41881;SDS011;27562;47.524;12.404;2024-02-15T00:55:57;5.55;;;2.83;;
41881;SDS011;27562;47.524;12.404;2024-02-15T00:58:23;3.90;;;2.47;;
41881;SDS011;27562;47.524;12.404;2024-02-15T01:00:52;5.22;;;2.63;;
41881;SDS011;27562;47.524;12.404;2024-02-15T01:03:18;3.95;;;2.40;;
41881;SDS011;27562;47.524;12.404;2024-02-15T01:05:44;4.85;;;2.53;;
41881;SDS011;27562;47.524;12.404;2024-02-15T01:08:10;5.60;;;2.90;;
41881;SDS011;27562;47.524;12.404;2024-02-15T01:10:36;7.63;;;2.90;;
41881;SDS011;27562;47.524;12.404;2024-02-15T01:13:02;7.43;;;2.85;;
41881;SDS011;27562;47.524;12.404;2024-02-15T01:15:28;6.40;;;3.28;;
41881;SDS011;27562;47.524;12.404;2024-02-15T01:17:55;5.47;;;2.95;;
41881;SDS011;27562;47.524;12.404;2024-02-15T01:20:20;5.00;;;2.47;;
41881;SDS011;27562;47.524;12.404;2024-02-15T01:22:46;5.45;;;2.92;;
41881;SDS011;27562;47.524;12.404;2024-02-15T01:25:12;4.63;;;2.40;;
41881;SDS011;27562;47.524;12.404;2024-02-15T01:27:40;4.53;;;2.55;;
41881;SDS011;27562;47.524;12.404;2024-02-15T01:30:06;3.85;;;1.70;;
41881;SDS011;27562;47.524;12.404;2024-02-15T01:32:33;5.78;;;2.28;;
41881;SDS011;27562;47.524;12.404;2024-02-15T01:34:59;6.15;;;2.80;;
41881;SDS011;27562;47.524;12.404;2024-02-15T01:37:25;6.15;;;2.55;;
41881;SDS011;27562;47.524;12.404;2024-02-15T01:39:51;4.55;;;2.78;;
41881;SDS011;27562;47.524;12.404;2024-02-15T01:42:16;4.65;;;2.63;;
41881;SDS011;27562;47.524;12.404;2024-02-15T01:44:42;5.30;;;2.72;;
41881;SDS011;27562;47.524;12.404;2024-02-15T01:47:12;6.72;;;3.20;;
41881;SDS011;27562;47.524;12.404;2024-02-15T01:49:38;6.38;;;3.00;;
41881;SDS011;27562;47.524;12.404;2024-02-15T01:52:06;5.63;;;2.78;;
41881;SDS011;27562;47.524;12.404;2024-02-15T01:54:34;5.22;;;2.88;;
41881;SDS011;27562;47.524;12.404;2024-02-15T01:57:04;5.75;;;2.60;;
41881;SDS011;27562;47.524;12.404;2024-02-15T01:59:30;6.32;;;3.00;;
41881;SDS011;27562;47.524;12.404;2024-02-15T02:01:56;5.95;;;3.13;;
41881;SDS011;27562;47.524;12.404;2024-02-15T02:04:22;5.97;;;2.60;;
41881;SDS011;27562;47.524;12.404;2024-02-15T02:06:47;6.13;;;2.60;;
41881;SDS011;27562;47.524;12.404;2024-02-15T02:09:13;4.70;;;2.55;;
41881;SDS011;27562;47.524;12.404;2024-02-15T02:11:40;4.55;;;2.65;;
41881;SDS011;27562;47.524;12.404;2024-02-15T02:14:07;6.03;;;2.67;;
41881;SDS011;27562;47.524;12.404;2024-02-15T02:16:33;4.63;;;2.70;;
41881;SDS011;27562;47.524;12.404;2024-02-15T02:19:04;7.68;;;3.38;;
41881;SDS011;27562;47.524;12.404;2024-02-15T02:21:34;5.07;;;2.80;;
41881;SDS011;27562;47.524;12.404;2024-02-15T02:24:01;4.07;;;2.30;;
41881;SDS011;27562;47.524;12.404;2024-02-15T02:26:33;4.03;;;2.40;;
41881;SDS011;27562;47.524;12.404;2024-02-15T02:29:02;5.07;;;2.28;;
41881;SDS011;27562;47.524;12.404;2024-02-15T02:31:36;4.63;;;2.03;;
41881;SDS011;27562;47.524;12.404;2024-02-15T02:34:02;7.70;;;2.80;;
41881;SDS011;27562;47.524;12.404;2024-02-15T02:36:28;5.70;;;3.20;;
41881;SDS011;27562;47.524;12.404;2024-02-15T02:38:54;6.05;;;3.10;;
41881;SDS011;27562;47.524;12.404;2024-02-15T02:41:25;7.75;;;3.53;;
41881;SDS011;27562;47.524;12.404;2024-02-15T02:43:51;5.40;;;2.80;;
41881;SDS011;27562;47.524;12.404;2024-02-15T02:46:17;4.88;;;2.90;;
41881;SDS011;27562;47.524;12.404;2024-02-15T02:48:42;5.22;;;2.47;;
41881;SDS011;27562;47.524;12.404;2024-02-15T02:51:08;6.78;;;3.70;;
41881;SDS011;27562;47.524;12.404;2024-02-15T02:53:34;7.00;;;4.32;;
41881;SDS011;27562;47.524;12.404;2024-02-15T02:56:00;6.15;;;4.10;;
41881;SDS011;27562;47.524;12.404;2024-02-15T02:58:27;7.40;;;4.70;;
41881;SDS011;27562;47.524;12.404;2024-02-15T03:00:54;8.35;;;4.25;;
41881;SDS011;27562;47.524;12.404;2024-02-15T03:03:20;4.45;;;3.30;;
41881;SDS011;27562;47.524;12.404;2024-02-15T03:05:48;4.07;;;2.67;;
41881;SDS011;27562;47.524;12.404;2024-02-15T03:08:14;5.82;;;2.78;;
41881;SDS011;27562;47.524;12.404;2024-02-15T03:10:42;3.72;;;2.20;;
41881;SDS011;27562;47.524;12.404;2024-02-15T03:13:08;4.20;;;2.20;;
41881;SDS011;27562;47.524;12.404;2024-02-15T03:15:34;3.40;;;2.13;;
41881;SDS011;27562;47.524;12.404;2024-02-15T03:18:00;4.93;;;2.28;;
41881;SDS011;27562;47.524;12.404;2024-02-15T03:20:33;3.55;;;2.05;;
41881;SDS011;27562;47.524;12.404;2024-02-15T03:23:02;4.60;;;2.70;;
41881;SDS011;27562;47.524;12.404;2024-02-15T03:25:28;5.53;;;2.53;;
41881;SDS011;27562;47.524;12.404;2024-02-15T03:28:00;8.15;;;3.50;;
41881;SDS011;27562;47.524;12.404;2024-02-15T03:30:30;8.63;;;3.35;;
41881;SDS011;27562;47.524;12.404;2024-02-15T03:32:57;5.00;;;2.85;;
41881;SDS011;27562;47.524;12.404;2024-02-15T03:35:24;8.82;;;3.72;;
41881;SDS011;27562;47.524;12.404;2024-02-15T03:37:51;5.22;;;2.85;;
41881;SDS011;27562;47.524;12.404;2024-02-15T03:40:18;5.43;;;2.80;;
41881;SDS011;27562;47.524;12.404;2024-02-15T03:42:44;5.03;;;2.58;;
41881;SDS011;27562;47.524;12.404;2024-02-15T03:45:11;4.68;;;2.60;;
41881;SDS011;27562;47.524;12.404;2024-02-15T03:47:37;3.17;;;2.13;;
41881;SDS011;27562;47.524;12.404;2024-02-15T03:50:06;5.53;;;2.97;;
41881;SDS011;27562;47.524;12.404;2024-02-15T03:52:35;4.47;;;3.00;;
41881;SDS011;27562;47.524;12.404;2024-02-15T03:55:02;6.25;;;2.90;;
41881;SDS011;27562;47.524;12.404;2024-02-15T03:57:28;4.18;;;2.42;;
41881;SDS011;27562;47.524;12.404;2024-02-15T03:59:54;5.60;;;2.92;;
41881;SDS011;27562;47.524;12.404;2024-02-15T04:02:22;5.95;;;2.95;;
41881;SDS011;27562;47.524;12.404;2024-02-15T04:04:51;4.90;;;2.75;;
41881;SDS011;27562;47.524;12.404;2024-02-15T04:07:18;4.72;;;2.40;;
41881;SDS011;27562;47.524;12.404;2024-02-15T04:09:44;4.03;;;2.42;;
41881;SDS011;27562;47.524;12.404;2024-02-15T04:12:11;4.80;;;2.80;;
41881;SDS011;27562;47.524;12.404;2024-02-15T04:14:37;4.75;;;2.38;;
41881;SDS011;27562;47.524;12.404;2024-02-15T04:17:03;5.85;;;3.15;;
41881;SDS011;27562;47.524;12.404;2024-02-15T04:19:30;4.78;;;2.50;;
41881;SDS011;27562;47.524;12.404;2024-02-15T04:21:56;5.53;;;2.80;;
41881;SDS011;27562;47.524;12.404;2024-02-15T04:24:22;4.60;;;2.80;;
41881;SDS011;27562;47.524;12.404;2024-02-15T04:26:48;5.32;;;2.85;;
41881;SDS011;27562;47.524;12.404;2024-02-15T04:29:14;4.82;;;2.55;;
41881;SDS011;27562;47.524;12.404;2024-02-15T04:31:40;5.32;;;2.90;;
41881;SDS011;27562;47.524;12.404;2024-02-15T04:34:08;5.28;;;2.33;;
41881;SDS011;27562;47.524;12.404;2024-02-15T04:36:36;5.40;;;2.97;;
41881;SDS011;27562;47.524;12.404;2024-02-15T04:39:02;5.95;;;2.60;;
41881;SDS011;27562;47.524;12.404;2024-02-15T04:41:29;5.72;;;2.90;;
41881;SDS011;27562;47.524;12.404;2024-02-15T04:43:54;5.55;;;3.10;;
41881;SDS011;27562;47.524;12.404;2024-02-15T04:46:20;7.65;;;3.70;;
41881;SDS011;27562;47.524;12.404;2024-02-15T04:48:47;7.28;;;3.63;;
41881;SDS011;27562;47.524;12.404;2024-02-15T04:51:17;6.32;;;3.42;;
41881;SDS011;27562;47.524;12.404;2024-02-15T04:53:44;6.80;;;3.72;;
41881;SDS011;27562;47.524;12.404;2024-02-15T04:56:11;6.65;;;3.67;;
41881;SDS011;27562;47.524;12.404;2024-02-15T04:58:41;6.18;;;3.97;;
41881;SDS011;27562;47.524;12.404;2024-02-15T05:01:16;5.68;;;3.53;;
41881;SDS011;27562;47.524;12.404;2024-02-15T05:03:45;6.88;;;3.53;;
41881;SDS011;27562;47.524;12.404;2024-02-15T05:06:12;6.10;;;3.47;;
41881;SDS011;27562;47.524;12.404;2024-02-15T05:08:39;6.53;;;3.30;;
41881;SDS011;27562;47.524;12.404;2024-02-15T05:11:10;4.82;;;3.15;;
41881;SDS011;27562;47.524;12.404;2024-02-15T05:13:43;7.63;;;3.60;;
41881;SDS011;27562;47.524;12.404;2024-02-15T05:16:12;22.45;;;10.18;;
41881;SDS011;27562;47.524;12.404;2024-02-15T05:18:38;25.05;;;13.02;;
41881;SDS011;27562;47.524;12.404;2024-02-15T05:21:05;22.83;;;11.50;;
41881;SDS011;27562;47.524;12.404;2024-02-15T05:23:34;11.20;;;6.65;;
41881;SDS011;27562;47.524;12.404;2024-02-15T05:26:05;8.35;;;4.55;;
41881;SDS011;27562;47.524;12.404;2024-02-15T05:28:31;7.65;;;3.88;;
41881;SDS011;27562;47.524;12.404;2024-02-15T05:33:48;5.35;;;3.33;;
41881;SDS011;27562;47.524;12.404;2024-02-15T05:36:15;4.28;;;3.03;;
41881;SDS011;27562;47.524;12.404;2024-02-15T05:38:45;5.25;;;2.70;;
41881;SDS011;27562;47.524;12.404;2024-02-15T05:41:11;8.13;;;3.90;;
41881;SDS011;27562;47.524;12.404;2024-02-15T05:43:40;7.88;;;4.00;;
41881;SDS011;27562;47.524;12.404;2024-02-15T05:46:09;10.88;;;5.93;;
41881;SDS011;27562;47.524;12.404;2024-02-15T05:48:36;9.27;;;5.30;;
41881;SDS011;27562;47.524;12.404;2024-02-15T05:51:02;9.45;;;5.50;;
41881;SDS011;27562;47.524;12.404;2024-02-15T05:53:29;9.00;;;5.00;;
41881;SDS011;27562;47.524;12.404;2024-02-15T05:55:55;8.43;;;4.60;;
41881;SDS011;27562;47.524;12.404;2024-02-15T05:58:25;10.13;;;5.25;;
41881;SDS011;27562;47.524;12.404;2024-02-15T06:00:51;16.02;;;8.23;;
41881;SDS011;27562;47.524;12.404;2024-02-15T06:03:18;17.92;;;7.50;;
41881;SDS011;27562;47.524;12.404;2024-02-15T06:05:47;18.17;;;9.90;;
41881;SDS011;27562;47.524;12.404;2024-02-15T06:08:13;30.05;;;13.43;;
41881;SDS011;27562;47.524;12.404;2024-02-15T06:10:39;28.08;;;11.82;;
41881;SDS011;27562;47.524;12.404;2024-02-15T06:13:05;22.02;;;11.82;;
41881;SDS011;27562;47.524;12.404;2024-02-15T06:15:33;20.92;;;10.45;;
41881;SDS011;27562;47.524;12.404;2024-02-15T06:17:59;19.92;;;10.60;;
41881;SDS011;27562;47.524;12.404;2024-02-15T06:20:25;14.75;;;7.90;;
41881;SDS011;27562;47.524;12.404;2024-02-15T06:22:54;11.93;;;6.50;;
41881;SDS011;27562;47.524;12.404;2024-02-15T06:25:20;14.18;;;7.10;;
41881;SDS011;27562;47.524;12.404;2024-02-15T06:27:46;12.95;;;7.25;;
41881;SDS011;27562;47.524;12.404;2024-02-15T06:30:14;17.02;;;7.82;;
41881;SDS011;27562;47.524;12.404;2024-02-15T06:32:58;13.68;;;6.32;;
41881;SDS011;27562;47.524;12.404;2024-02-15T06:35:42;11.13;;;4.97;;
41881;SDS011;27562;47.524;12.404;2024-02-15T06:38:27;10.57;;;5.68;;
41881;SDS011;27562;47.524;12.404;2024-02-15T06:41:12;12.80;;;7.43;;
41881;SDS011;27562;47.524;12.404;2024-02-15T06:43:38;14.50;;;8.48;;
41881;SDS011;27562;47.524;12.404;2024-02-15T06:46:07;16.02;;;9.32;;
41881;SDS011;27562;47.524;12.404;2024-02-15T06:48:34;13.38;;;8.60;;
41881;SDS011;27562;47.524;12.404;2024-02-15T06:51:01;14.80;;;8.70;;
41881;SDS011;27562;47.524;12.404;2024-02-15T06:53:28;18.98;;;10.32;;
41881;SDS011;27562;47.524;12.404;2024-02-15T06:55:55;20.58;;;10.80;;
41881;SDS011;27562;47.524;12.404;2024-02-15T06:58:21;19.27;;;11.07;;
41881;SDS011;27562;47.524;12.404;2024-02-15T07:00:47;17.13;;;9.30;;
41881;SDS011;27562;47.524;12.404;2024-02-15T07:03:15;16.10;;;8.63;;
41881;SDS011;27562;47.524;12.404;2024-02-15T07:05:41;11.88;;;7.13;;
41881;SDS011;27562;47.524;12.404;2024-02-15T07:08:08;8.00;;;4.72;;
41881;SDS011;27562;47.524;12.404;2024-02-15T07:10:38;6.38;;;3.30;;
41881;SDS011;27562;47.524;12.404;2024-02-15T07:13:04;6.72;;;3.78;;
41881;SDS011;27562;47.524;12.404;2024-02-15T07:15:31;7.60;;;3.63;;
41881;SDS011;27562;47.524;12.404;2024-02-15T07:20:31;7.97;;;2.65;;
41881;SDS011;27562;47.524;12.404;2024-02-15T07:22:58;5.10;;;2.90;;
41881;SDS011;27562;47.524;12.404;2024-02-15T07:25:24;5.13;;;2.38;;
41881;SDS011;27562;47.524;12.404;2024-02-15T07:27:49;7.35;;;3.15;;
41881;SDS011;27562;47.524;12.404;2024-02-15T07:30:15;4.63;;;2.72;;
41881;SDS011;27562;47.524;12.404;2024-02-15T07:32:41;4.82;;;3.00;;
41881;SDS011;27562;47.524;12.404;2024-02-15T07:35:07;8.00;;;4.38;;
41881;SDS011;27562;47.524;12.404;2024-02-15T07:37:33;11.65;;;4.60;;
41881;SDS011;27562;47.524;12.404;2024-02-15T07:40:00;7.90;;;4.60;;
41881;SDS011;27562;47.524;12.404;2024-02-15T07:42:27;10.90;;;4.63;;
41881;SDS011;27562;47.524;12.404;2024-02-15T07:44:53;8.68;;;4.55;;
41881;SDS011;27562;47.524;12.404;2024-02-15T07:47:19;6.35;;;3.92;;
41881;SDS011;27562;47.524;12.404;2024-02-15T07:49:48;7.60;;;4.28;;
41881;SDS011;27562;47.524;12.404;2024-02-15T07:52:14;7.68;;;4.25;;
41881;SDS011;27562;47.524;12.404;2024-02-15T07:54:40;7.47;;;4.35;;
41881;SDS011;27562;47.524;12.404;2024-02-15T07:57:05;10.05;;;5.00;;
41881;SDS011;27562;47.524;12.404;2024-02-15T07:59:31;9.25;;;4.70;;
41881;SDS011;27562;47.524;12.404;2024-02-15T08:01:57;8.07;;;4.70;;
41881;SDS011;27562;47.524;12.404;2024-02-15T08:04:23;11.93;;;5.20;;
41881;SDS011;27562;47.524;12.404;2024-02-15T08:06:49;9.05;;;4.88;;
41881;SDS011;27562;47.524;12.404;2024-02-15T08:09:18;8.23;;;4.60;;
41881;SDS011;27562;47.524;12.404;2024-02-15T08:11:46;9.13;;;4.20;;
41881;SDS011;27562;47.524;12.404;2024-02-15T08:14:12;8.68;;;4.13;;
41881;SDS011;27562;47.524;12.404;2024-02-15T08:16:38;8.32;;;4.70;;
41881;SDS011;27562;47.524;12.404;2024-02-15T08:19:05;7.90;;;4.25;;
41881;SDS011;27562;47.524;12.404;2024-02-15T08:21:32;6.13;;;3.95;;
41881;SDS011;27562;47.524;12.404;2024-02-15T08:24:02;14.50;;;4.13;;
41881;SDS011;27562;47.524;12.404;2024-02-15T08:26:38;7.75;;;3.80;;
41881;SDS011;27562;47.524;12.404;2024-02-15T08:29:04;5.57;;;3.40;;
41881;SDS011;27562;47.524;12.404;2024-02-15T08:31:34;8.38;;;3.60;;
41881;SDS011;27562;47.524;12.404;2024-02-15T08:34:03;5.55;;;3.08;;
41881;SDS011;27562;47.524;12.404;2024-02-15T08:36:35;5.78;;;3.13;;
41881;SDS011;27562;47.524;12.404;2024-02-15T08:39:01;7.38;;;3.60;;
41881;SDS011;27562;47.524;12.404;2024-02-15T08:41:28;10.93;;;3.97;;
41881;SDS011;27562;47.524;12.404;2024-02-15T08:43:54;6.85;;;4.07;;
41881;SDS011;27562;47.524;12.404;2024-02-15T08:46:23;9.60;;;3.83;;
41881;SDS011;27562;47.524;12.404;2024-02-15T08:48:50;5.13;;;3.13;;
41881;SDS011;27562;47.524;12.404;2024-02-15T08:51:17;7.22;;;3.40;;
41881;SDS011;27562;47.524;12.404;2024-02-15T08:53:43;6.22;;;3.15;;
41881;SDS011;27562;47.524;12.404;2024-02-15T08:56:09;11.73;;;4.30;;
41881;SDS011;27562;47.524;12.404;2024-02-15T08:58:35;7.82;;;4.45;;
41881;SDS011;27562;47.524;12.404;2024-02-15T09:01:01;12.60;;;5.78;;
41881;SDS011;27562;47.524;12.404;2024-02-15T09:03:28;10.85;;;4.80;;
41881;SDS011;27562;47.524;12.404;2024-02-15T09:05:53;11.45;;;5.53;;
41881;SDS011;27562;47.524;12.404;2024-02-15T09:08:19;10.20;;;5.25;;
41881;SDS011;27562;47.524;12.404;2024-02-15T09:10:49;9.07;;;4.72;;
41881;SDS011;27562;47.524;12.404;2024-02-15T09:13:15;10.00;;;4.88;;
41881;SDS011;27562;47.524;12.404;2024-02-15T09:15:41;7.28;;;3.90;;
41881;SDS011;27562;47.524;12.404;2024-02-15T09:18:10;11.00;;;4.78;;
41881;SDS011;27562;47.524;12.404;2024-02-15T09:20:36;10.95;;;5.53;;
41881;SDS011;27562;47.524;12.404;2024-02-15T09:23:03;11.57;;;5.18;;
41881;SDS011;27562;47.524;12.404;2024-02-15T09:28:01;8.68;;;4.93;;
41881;SDS011;27562;47.524;12.404;2024-02-15T09:30:28;10.15;;;5.57;;
41881;SDS011;27562;47.524;12.404;2024-02-15T09:32:54;12.80;;;5.22;;
41881;SDS011;27562;47.524;12.404;2024-02-15T09:35:19;8.73;;;4.47;;
41881;SDS011;27562;47.524;12.404;2024-02-15T09:37:47;8.00;;;4.72;;
41881;SDS011;27562;47.524;12.404;2024-02-15T09:40:14;7.05;;;4.20;;
41881;SDS011;27562;47.524;12.404;2024-02-15T09:42:42;5.43;;;3.55;;
41881;SDS011;27562;47.524;12.404;2024-02-15T09:45:09;8.45;;;2.83;;
41881;SDS011;27562;47.524;12.404;2024-02-15T09:47:41;5.30;;;3.00;;
41881;SDS011;27562;47.524;12.404;2024-02-15T09:50:14;5.93;;;3.10;;
41881;SDS011;27562;47.524;12.404;2024-02-15T09:52:50;7.88;;;3.88;;
41881;SDS011;27562;47.524;12.404;2024-02-15T09:55:17;5.75;;;3.70;;
41881;SDS011;27562;47.524;12.404;2024-02-15T09:57:44;9.45;;;5.05;;
41881;SDS011;27562;47.524;12.404;2024-02-15T10:00:13;7.30;;;4.03;;
41881;SDS011;27562;47.524;12.404;2024-02-15T10:02:40;6.38;;;3.92;;
41881;SDS011;27562;47.524;12.404;2024-02-15T10:05:09;7.65;;;4.60;;
41881;SDS011;27562;47.524;12.404;2024-02-15T10:07:37;11.48;;;5.50;;
41881;SDS011;27562;47.524;12.404;2024-02-15T10:10:22;9.48;;;4.90;;
41881;SDS011;27562;47.524;12.404;2024-02-15T10:12:49;8.85;;;5.00;;
41881;SDS011;27562;47.524;12.404;2024-02-15T10:15:31;8.93;;;4.30;;
41881;SDS011;27562;47.524;12.404;2024-02-15T10:17:59;6.80;;;4.18;;
41881;SDS011;27562;47.524;12.404;2024-02-15T10:20:30;7.88;;;4.10;;
41881;SDS011;27562;47.524;12.404;2024-02-15T10:25:26;7.28;;;3.33;;
41881;SDS011;27562;47.524;12.404;2024-02-15T10:28:01;4.07;;;2.50;;
41881;SDS011;27562;47.524;12.404;2024-02-15T10:30:37;6.53;;;3.33;;
41881;SDS011;27562;47.524;12.404;2024-02-15T10:33:05;7.90;;;2.97;;
41881;SDS011;27562;47.524;12.404;2024-02-15T10:35:32;5.97;;;3.05;;
41881;SDS011;27562;47.524;12.404;2024-02-15T10:38:05;4.10;;;2.47;;
41881;SDS011;27562;47.524;12.404;2024-02-15T10:40:38;7.90;;;2.33;;
41881;SDS011;27562;47.524;12.404;2024-02-15T10:43:08;3.30;;;2.03;;
41881;SDS011;27562;47.524;12.404;2024-02-15T10:45:38;4.63;;;2.50;;
41881;SDS011;27562;47.524;12.404;2024-02-15T10:48:07;6.13;;;2.42;;
41881;SDS011;27562;47.524;12.404;2024-02-15T10:50:35;6.38;;;2.15;;
41881;SDS011;27562;47.524;12.404;2024-02-15T10:53:38;6.20;;;2.20;;
41881;SDS011;27562;47.524;12.404;2024-02-15T10:58:29;3.80;;;2.00;;
41881;SDS011;27562;47.524;12.404;2024-02-15T11:01:00;3.45;;;2.08;;
41881;SDS011;27562;47.524;12.404;2024-02-15T11:03:40;2.97;;;1.65;;
41881;SDS011;27562;47.524;12.404;2024-02-15T11:06:17;3.25;;;1.58;;
41881;SDS011;27562;47.524;12.404;2024-02-15T11:08:46;5.53;;;1.50;;
41881;SDS011;27562;47.524;12.404;2024-02-15T11:11:13;2.55;;;1.00;;
41881;SDS011;27562;47.524;12.404;2024-02-15T11:13:39;1.80;;;0.80;;
41881;SDS011;27562;47.524;12.404;2024-02-15T11:16:07;3.78;;;1.20;;
41881;SDS011;27562;47.524;12.404;2024-02-15T11:18:46;2.50;;;1.15;;
41881;SDS011;27562;47.524;12.404;2024-02-15T11:21:17;4.30;;;1.17;;
41881;SDS011;27562;47.524;12.404;2024-02-15T11:23:45;1.88;;;0.90;;
41881;SDS011;27562;47.524;12.404;2024-02-15T11:29:47;2.67;;;0.70;;
41881;SDS011;27562;47.524;12.404;2024-02-15T11:40:16;1.38;;;0.60;;
41881;SDS011;27562;47.524;12.404;2024-02-15T11:42:43;2.42;;;0.75;;
41881;SDS011;27562;47.524;12.404;2024-02-15T11:45:09;1.98;;;0.73;;
41881;SDS011;27562;47.524;12.404;2024-02-15T11:47:39;6.78;;;0.93;;
41881;SDS011;27562;47.524;12.404;2024-02-15T11:50:09;2.83;;;0.80;;
41881;SDS011;27562;47.524;12.404;2024-02-15T11:52:40;5.82;;;1.38;;
41881;SDS011;27562;47.524;12.404;2024-02-15T11:55:07;1.40;;;0.80;;
41881;SDS011;27562;47.524;12.404;2024-02-15T11:57:37;2.72;;;0.80;;
41881;SDS011;27562;47.524;12.404;2024-02-15T12:00:26;1.23;;;0.60;;
41881;SDS011;27562;47.524;12.404;2024-02-15T12:03:12;1.08;;;0.60;;
41881;SDS011;27562;47.524;12.404;2024-02-15T12:05:58;1.35;;;0.60;;
41881;SDS011;27562;47.524;12.404;2024-02-15T12:08:48;2.45;;;0.80;;
41881;SDS011;27562;47.524;12.404;2024-02-15T12:11:33;1.40;;;0.70;;
41881;SDS011;27562;47.524;12.404;2024-02-15T12:14:17;2.92;;;1.05;;
41881;SDS011;27562;47.524;12.404;2024-02-15T12:17:03;1.63;;;0.90;;
41881;SDS011;27562;47.524;12.404;2024-02-15T12:19:56;3.58;;;0.93;;
41881;SDS011;27562;47.524;12.404;2024-02-15T12:22:32;1.67;;;0.80;;
41881;SDS011;27562;47.524;12.404;2024-02-15T12:24:59;4.88;;;0.77;;
41881;SDS011;27562;47.524;12.404;2024-02-15T12:27:25;2.20;;;0.52;;
41881;SDS011;27562;47.524;12.404;2024-02-15T12:29:55;1.30;;;0.60;;
41881;SDS011;27562;47.524;12.404;2024-02-15T12:32:23;2.13;;;0.80;;
41881;SDS011;27562;47.524;12.404;2024-02-15T12:34:49;1.15;;;0.70;;
41881;SDS011;27562;47.524;12.404;2024-02-15T12:37:19;1.65;;;0.70;;
41881;SDS011;27562;47.524;12.404;2024-02-15T12:39:49;2.00;;;0.60;;
41881;SDS011;27562;47.524;12.404;2024-02-15T12:42:15;1.92;;;0.50;;
41881;SDS011;27562;47.524;12.404;2024-02-15T12:44:46;4.18;;;0.77;;
41881;SDS011;27562;47.524;12.404;2024-02-15T12:47:19;2.25;;;0.60;;
41881;SDS011;27562;47.524;12.404;2024-02-15T12:49:45;2.78;;;0.60;;
41881;SDS011;27562;47.524;12.404;2024-02-15T12:55:18;1.20;;;0.60;;
41881;SDS011;27562;47.524;12.404;2024-02-15T12:57:47;3.33;;;0.90;;
41881;SDS011;27562;47.524;12.404;2024-02-15T13:00:19;1.33;;;0.60;;
41881;SDS011;27562;47.524;12.404;2024-02-15T13:02:53;1.67;;;0.60;;
41881;SDS011;27562;47.524;12.404;2024-02-15T13:05:20;0.95;;;0.57;;
41881;SDS011;27562;47.524;12.404;2024-02-15T13:07:50;2.40;;;0.80;;
41881;SDS011;27562;47.524;12.404;2024-02-15T13:10:16;0.85;;;0.50;;
41881;SDS011;27562;47.524;12.404;2024-02-15T13:12:46;2.75;;;0.70;;
41881;SDS011;27562;47.524;12.404;2024-02-15T13:15:12;1.83;;;0.50;;
41881;SDS011;27562;47.524;12.404;2024-02-15T13:17:45;1.77;;;0.60;;
41881;SDS011;27562;47.524;12.404;2024-02-15T13:20:13;1.50;;;0.60;;
41881;SDS011;27562;47.524;12.404;2024-02-15T13:22:43;2.38;;;0.60;;
41881;SDS011;27562;47.524;12.404;2024-02-15T13:25:09;1.55;;;0.70;;
41881;SDS011;27562;47.524;12.404;2024-02-15T13:27:36;1.58;;;0.73;;
41881;SDS011;27562;47.524;12.404;2024-02-15T13:30:05;1.35;;;0.52;;
41881;SDS011;27562;47.524;12.404;2024-02-15T13:32:37;2.45;;;0.60;;
41881;SDS011;27562;47.524;12.404;2024-02-15T13:35:06;2.85;;;0.80;;
41881;SDS011;27562;47.524;12.404;2024-02-15T13:37:55;2.47;;;0.73;;
41881;SDS011;27562;47.524;12.404;2024-02-15T13:40:27;1.38;;;0.55;;
41881;SDS011;27562;47.524;12.404;2024-02-15T13:42:55;0.93;;;0.50;;
41881;SDS011;27562;47.524;12.404;2024-02-15T13:45:44;2.35;;;0.65;;
41881;SDS011;27562;47.524;12.404;2024-02-15T13:48:10;1.38;;;0.60;;
41881;SDS011;27562;47.524;12.404;2024-02-15T13:50:40;2.15;;;0.40;;
41881;SDS011;27562;47.524;12.404;2024-02-15T13:53:05;1.35;;;0.47;;
41881;SDS011;27562;47.524;12.404;2024-02-15T13:55:31;1.08;;;0.50;;
41881;SDS011;27562;47.524;12.404;2024-02-15T13:57:57;1.42;;;0.60;;
41881;SDS011;27562;47.524;12.404;2024-02-15T14:00:25;2.33;;;0.60;;
41881;SDS011;27562;47.524;12.404;2024-02-15T14:03:10;2.88;;;0.57;;
41881;SDS011;27562;47.524;12.404;2024-02-15T14:05:36;5.60;;;1.35;;
41881;SDS011;27562;47.524;12.404;2024-02-15T14:08:05;3.03;;;0.85;;
41881;SDS011;27562;47.524;12.404;2024-02-15T14:10:32;3.97;;;0.82;;
41881;SDS011;27562;47.524;12.404;2024-02-15T14:13:01;2.38;;;0.80;;
41881;SDS011;27562;47.524;12.404;2024-02-15T14:15:29;1.15;;;0.70;;
41881;SDS011;27562;47.524;12.404;2024-02-15T14:17:55;4.55;;;0.80;;
41881;SDS011;27562;47.524;12.404;2024-02-15T14:20:21;3.08;;;0.85;;
41881;SDS011;27562;47.524;12.404;2024-02-15T14:22:47;5.00;;;0.90;;
41881;SDS011;27562;47.524;12.404;2024-02-15T14:25:14;2.63;;;0.70;;
41881;SDS011;27562;47.524;12.404;2024-02-15T14:27:40;1.52;;;0.60;;
41881;SDS011;27562;47.524;12.404;2024-02-15T14:30:07;1.92;;;0.80;;
41881;SDS011;27562;47.524;12.404;2024-02-15T14:32:52;3.25;;;0.80;;
41881;SDS011;27562;47.524;12.404;2024-02-15T14:35:30;2.28;;;1.17;;
41881;SDS011;27562;47.524;12.404;2024-02-15T14:37:59;1.98;;;0.85;;
41881;SDS011;27562;47.524;12.404;2024-02-15T14:40:31;1.25;;;0.70;;
41881;SDS011;27562;47.524;12.404;2024-02-15T14:42:58;0.90;;;0.40;;
41881;SDS011;27562;47.524;12.404;2024-02-15T14:45:24;3.80;;;0.73;;
41881;SDS011;27562;47.524;12.404;2024-02-15T14:47:51;1.77;;;0.80;;
41881;SDS011;27562;47.524;12.404;2024-02-15T14:50:17;1.48;;;0.65;;
41881;SDS011;27562;47.524;12.404;2024-02-15T14:52:42;1.63;;;0.80;;
41881;SDS011;27562;47.524;12.404;2024-02-15T14:55:09;1.80;;;0.52;;
41881;SDS011;27562;47.524;12.404;2024-02-15T14:57:35;1.23;;;0.50;;
41881;SDS011;27562;47.524;12.404;2024-02-15T15:00:03;1.83;;;0.70;;
41881;SDS011;27562;47.524;12.404;2024-02-15T15:02:35;1.50;;;0.65;;
41881;SDS011;27562;47.524;12.404;2024-02-15T15:05:02;1.80;;;0.60;;
41881;SDS011;27562;47.524;12.404;2024-02-15T15:07:46;0.90;;;0.47;;
41881;SDS011;27562;47.524;12.404;2024-02-15T15:10:31;2.92;;;0.70;;